Time;durP1;ratioP1;P1;durP2;ratioP2;P2;SDS_P1;SDS_P2;PMS_P1;PMS_P2;Temp;Humidity;BMP_temperature;BMP_pressure;BME280_temperature;BME280_humidity;BME280_pressure;Samples;Min_cycle;Max_cycle;Signal;HPM_P1;HPM_P2
2023/04/19 00:01:44;;;;;;;0.55;0.55;;;6.90;99.90;;;;;;5037889;28;20033;-87
2023/04/19 00:04:09;;;;;;;0.60;0.60;;;6.90;99.90;;;;;;5053911;28;20041;-89
2023/04/19 00:06:36;;;;;;;0.50;0.50;;;6.90;99.90;;;;;;5037591;28;20053;-85
2023/04/19 00:09:02;;;;;;;0.57;0.57;;;6.90;99.90;;;;;;5037064;28;20045;-84
2023/04/19 00:11:28;;;;;;;0.50;0.50;;;6.90;99.90;;;;;;5036422;28;20057;-89
2023/04/19 00:13:54;;;;;;;0.55;0.55;;;6.90;99.90;;;;;;5004590;28;20057;-87
2023/04/19 00:16:20;;;;;;;0.60;0.60;;;6.90;99.90;;;;;;5053385;28;20115;-86
2023/04/19 00:18:45;;;;;;;;;;;7.00;99.90;;;;;;5038201;28;20555;-87
2023/04/19 00:21:12;;;;;;;0.52;0.52;;;6.80;99.90;;;;;;5037031;28;19964;-87
2023/04/19 00:23:37;;;;;;;0.60;0.60;;;6.80;99.90;;;;;;5038717;28;20033;-87
2023/04/19 00:26:03;;;;;;;0.50;0.50;;;6.90;99.90;;;;;;5035980;28;20060;-84
2023/04/19 00:28:29;;;;;;;0.60;0.60;;;6.00;99.90;;;;;;5037083;28;20045;-83
2023/04/19 00:30:55;;;;;;;0.90;0.90;;;6.90;99.90;;;;;;5052379;28;20043;-89
2023/04/19 00:33:21;;;;;;;0.60;0.60;;;6.90;99.90;;;;;;5038404;28;20041;-91
2023/04/19 00:35:47;;;;;;;1.00;1.00;;;6.90;99.90;;;;;;5021412;28;20042;-86
2023/04/19 00:38:12;;;;;;;1.08;1.08;;;6.90;99.90;;;;;;5004438;28;20073;-88
2023/04/19 00:40:38;;;;;;;0.50;0.50;;;6.90;99.90;;;;;;5037133;28;20052;-86
2023/04/19 00:43:04;;;;;;;0.50;0.50;;;6.80;99.90;;;;;;5036853;28;20132;-86
2023/04/19 00:45:33;;;;;;;0.57;0.57;;;6.80;99.90;;;;;;5021591;28;20026;-88
2023/04/19 00:48:00;;;;;;;0.50;0.50;;;6.70;99.90;;;;;;5020589;28;20045;-88
2023/04/19 00:50:26;;;;;;;1.30;1.30;;;6.70;99.90;;;;;;5037486;28;20460;-86
2023/04/19 00:52:54;;;;;;;0.50;0.50;;;6.60;99.90;;;;;;5036989;28;20129;-89
2023/04/19 00:55:21;;;;;;;0.50;0.50;;;6.60;99.90;;;;;;5053624;28;20116;-85
2023/04/19 00:57:47;;;;;;;0.40;0.40;;;7.40;99.90;;;;;;5037012;28;20041;-89
2023/04/19 01:00:13;;;;;;;0.70;0.70;;;6.50;99.90;;;;;;5054032;28;20441;-87
2023/04/19 01:02:39;;;;;;;0.40;0.40;;;6.50;99.90;;;;;;5036433;28;20053;-87
2023/04/19 01:05:05;;;;;;;0.70;0.70;;;6.50;99.90;;;;;;5039186;28;20048;-85
2023/04/19 01:07:32;;;;;;;0.70;0.70;;;6.40;99.90;;;;;;5037460;28;20050;-88
2023/04/19 01:09:58;;;;;;;0.52;0.52;;;6.40;99.90;;;;;;5037299;28;20095;-89
2023/04/19 01:12:24;;;;;;;0.50;0.50;;;6.30;99.90;;;;;;5020560;28;20053;-87
2023/04/19 01:14:50;;;;;;;0.60;0.60;;;6.20;99.90;;;;;;5037508;28;20155;-86
2023/04/19 01:17:16;;;;;;;0.50;0.50;;;6.20;99.90;;;;;;5037514;28;20053;-89
2023/04/19 01:19:42;;;;;;;1.10;1.10;;;6.20;99.90;;;;;;5036858;28;20045;-86
2023/04/19 01:22:09;;;;;;;0.50;0.50;;;6.20;99.90;;;;;;5036875;28;20110;-85
2023/04/19 01:24:34;;;;;;;0.73;0.73;;;6.10;99.90;;;;;;5037865;28;20084;-90
2023/04/19 01:27:01;;;;;;;0.40;0.40;;;6.10;99.90;;;;;;5036791;28;20053;-89
2023/04/19 01:29:27;;;;;;;0.57;0.57;;;6.00;99.90;;;;;;5037266;28;20061;-88
2023/04/19 01:31:52;;;;;;;0.55;0.55;;;6.00;99.90;;;;;;5036695;28;20039;-88
2023/04/19 01:34:24;;;;;;;0.60;0.60;;;5.90;99.90;;;;;;5037301;28;20041;-88
2023/04/19 01:36:49;;;;;;;0.50;0.50;;;5.90;99.90;;;;;;5036979;28;20045;-88
2023/04/19 01:39:15;;;;;;;0.60;0.60;;;5.90;99.90;;;;;;5019313;28;20056;-85
2023/04/19 01:41:41;;;;;;;0.50;0.50;;;5.80;99.90;;;;;;5036876;28;20128;-87
2023/04/19 01:44:07;;;;;;;0.80;0.80;;;5.80;99.90;;;;;;5036674;28;20049;-88
2023/04/19 01:46:32;;;;;;;0.50;0.50;;;5.70;99.90;;;;;;5036904;28;20476;-89
2023/04/19 01:48:58;;;;;;;0.52;0.52;;;5.70;99.90;;;;;;5003356;28;20384;-89
2023/04/19 01:51:23;;;;;;;0.68;0.68;;;6.40;99.90;;;;;;5035736;28;20046;-87
2023/04/19 01:53:52;;;;;;;0.77;0.77;;;5.70;99.90;;;;;;5039532;28;20060;-87
2023/04/19 01:56:18;;;;;;;0.50;0.50;;;5.60;99.90;;;;;;5039710;28;20088;-88
2023/04/19 01:58:44;;;;;;;0.60;0.60;;;5.60;99.90;;;;;;5039970;28;20049;-86
2023/04/19 02:01:11;;;;;;;0.50;0.50;;;5.50;99.90;;;;;;5040176;28;20049;-84
2023/04/19 02:03:40;;;;;;;0.55;0.55;;;5.50;99.90;;;;;;5026335;28;20049;-88
2023/04/19 02:06:10;;;;;;;1.38;1.05;;;5.40;99.90;;;;;;5043834;28;20056;-89
2023/04/19 02:08:36;;;;;;;0.40;0.40;;;5.30;99.90;;;;;;5061277;28;20092;-90
2023/04/19 02:11:06;;;;;;;0.60;0.60;;;5.30;99.90;;;;;;5045129;28;20057;-90
2023/04/19 02:13:32;;;;;;;0.50;0.50;;;5.30;99.90;;;;;;5044720;28;20053;-88
2023/04/19 02:16:00;;;;;;;0.70;0.70;;;5.20;99.90;;;;;;5007969;28;20140;-88
2023/04/19 02:18:26;;;;;;;0.50;0.50;;;5.10;99.90;;;;;;5023044;28;20045;-89
2023/04/19 02:20:51;;;;;;;0.57;0.57;;;5.10;99.90;;;;;;5056141;28;20522;-87
2023/04/19 02:23:17;;;;;;;0.70;0.70;;;5.10;99.90;;;;;;5039635;28;20476;-88
2023/04/19 02:25:43;;;;;;;0.60;0.60;;;5.10;99.90;;;;;;5039543;28;20093;-90
2023/04/19 02:28:08;;;;;;;0.57;0.57;;;5.10;99.90;;;;;;5038475;28;20282;-89
2023/04/19 02:30:36;;;;;;;0.55;0.55;;;5.10;99.90;;;;;;5038471;28;20080;-87
2023/04/19 02:33:01;;;;;;;0.50;0.50;;;5.10;99.90;;;;;;5054976;28;20049;-87
2023/04/19 02:35:27;;;;;;;0.80;0.80;;;5.80;99.90;;;;;;5038455;28;20400;-88
2023/04/19 02:37:53;;;;;;;0.50;0.50;;;5.20;99.90;;;;;;5022586;28;20183;-89
2023/04/19 02:40:19;;;;;;;0.60;0.60;;;5.30;99.90;;;;;;5022827;28;20056;-88
2023/04/19 02:42:45;;;;;;;0.60;0.60;;;5.30;99.90;;;;;;5038989;28;20093;-86
2023/04/19 02:45:11;;;;;;;0.60;0.60;;;5.30;99.90;;;;;;5038722;28;20081;-86
2023/04/19 02:47:36;;;;;;;0.50;0.50;;;5.50;99.90;;;;;;5023410;28;20061;-87
2023/04/19 02:50:02;;;;;;;1.13;1.13;;;5.60;99.90;;;;;;5039177;28;20045;-89
2023/04/19 02:52:29;;;;;;;0.80;0.80;;;5.40;99.90;;;;;;5040427;28;20064;-90
2023/04/19 02:54:55;;;;;;;0.50;0.50;;;5.30;99.90;;;;;;5039544;28;20120;-88
2023/04/19 02:57:20;;;;;;;0.75;0.75;;;5.30;99.90;;;;;;5040167;28;20084;-87
2023/04/19 02:59:46;;;;;;;0.70;0.70;;;5.20;99.90;;;;;;5039496;28;20128;-87
2023/04/19 03:02:12;;;;;;;0.70;0.70;;;5.10;99.90;;;;;;5040559;28;20045;-89
2023/04/19 03:04:37;;;;;;;0.60;0.60;;;5.10;99.90;;;;;;5038720;28;20080;-87
2023/04/19 03:07:03;;;;;;;0.50;0.50;;;5.00;99.90;;;;;;5039049;28;20045;-88
2023/04/19 03:09:29;;;;;;;0.70;0.70;;;5.00;99.90;;;;;;5022193;28;20041;-85
2023/04/19 03:11:55;;;;;;;0.60;0.60;;;4.90;99.90;;;;;;5023177;28;20117;-88
2023/04/19 03:14:20;;;;;;;0.60;0.60;;;4.80;99.90;;;;;;5038285;28;20057;-88
2023/04/19 03:16:46;;;;;;;0.55;0.55;;;4.80;99.90;;;;;;5038497;28;20096;-88
2023/04/19 03:19:12;;;;;;;0.60;0.60;;;4.70;99.90;;;;;;5038809;28;20092;-87
2023/04/19 03:21:37;;;;;;;0.60;0.60;;;4.60;99.90;;;;;;5038517;28;20045;-89
2023/04/19 03:24:03;;;;;;;0.70;0.70;;;4.60;99.90;;;;;;5039309;28;20049;-88
2023/04/19 03:26:29;;;;;;;0.60;0.60;;;4.50;99.90;;;;;;5039022;28;20057;-90
2023/04/19 03:28:55;;;;;;;0.60;0.60;;;4.50;99.90;;;;;;5022888;28;20050;-88
2023/04/19 03:31:20;;;;;;;0.80;0.80;;;4.40;99.90;;;;;;5022812;28;20084;-82
2023/04/19 03:33:46;;;;;;;0.63;0.63;;;5.30;99.90;;;;;;5038700;28;20377;-86
2023/04/19 03:36:13;;;;;;;0.57;0.57;;;4.30;99.90;;;;;;5038295;28;20053;-88
2023/04/19 03:38:39;;;;;;;0.70;0.70;;;4.20;99.90;;;;;;5038365;28;20045;-85
2023/04/19 03:41:16;;;;;;;2.15;2.05;;;4.20;99.90;;;;;;5021690;28;20045;-89
2023/04/19 03:43:42;;;;;;;0.60;0.60;;;4.10;99.90;;;;;;5024154;28;20052;-88
2023/04/19 03:46:08;;;;;;;0.70;0.70;;;4.10;99.90;;;;;;5039874;28;20423;-88
2023/04/19 03:48:34;;;;;;;0.55;0.55;;;4.10;99.90;;;;;;5007658;28;20477;-88
2023/04/19 03:51:00;;;;;;;0.70;0.70;;;4.00;99.90;;;;;;5041413;28;20051;-89
2023/04/19 03:53:26;;;;;;;0.70;0.70;;;4.00;99.90;;;;;;5042194;28;20133;-88
2023/04/19 03:55:51;;;;;;;0.60;0.60;;;3.90;99.90;;;;;;5058313;28;20112;-85
2023/04/19 03:58:17;;;;;;;0.60;0.60;;;3.80;99.90;;;;;;5036918;28;20055;-88
2023/04/19 04:00:42;;;;;;;0.70;0.70;;;3.70;99.90;;;;;;5038062;28;20056;-87
2023/04/19 04:03:08;;;;;;;1.00;1.00;;;3.70;99.90;;;;;;5037692;28;20045;-87
2023/04/19 04:05:34;;;;;;;0.80;0.80;;;4.20;99.90;;;;;;5039160;28;20365;-88
2023/04/19 04:08:00;;;;;;;0.60;0.60;;;3.60;99.90;;;;;;5039275;28;20504;-87
2023/04/19 04:10:26;;;;;;;0.77;0.77;;;3.70;99.90;;;;;;5039788;28;20061;-88
2023/04/19 04:12:51;;;;;;;0.60;0.60;;;3.60;99.90;;;;;;5039688;28;20061;-89
2023/04/19 04:15:17;;;;;;;0.70;0.70;;;4.00;99.90;;;;;;5040439;28;20046;-88
2023/04/19 04:17:43;;;;;;;0.80;0.80;;;3.60;99.90;;;;;;5039299;28;20160;-89
2023/04/19 04:20:10;;;;;;;0.60;0.60;;;4.30;99.90;;;;;;5038801;28;20148;-89
2023/04/19 04:22:40;;;;;;;0.70;0.70;;;3.40;99.90;;;;;;5037454;28;20042;-87
2023/04/19 04:25:07;;;;;;;0.73;0.73;;;4.20;99.90;;;;;;5037349;28;20073;-88
2023/04/19 04:27:32;;;;;;;0.70;0.70;;;3.20;99.90;;;;;;5037783;28;20124;-88
2023/04/19 04:29:58;;;;;;;0.70;0.70;;;3.20;99.90;;;;;;5039010;28;20094;-88
2023/04/19 04:32:24;;;;;;;1.02;1.00;;;3.10;99.90;;;;;;5022554;28;20052;-85
2023/04/19 04:34:50;;;;;;;0.52;0.52;;;3.70;99.90;;;;;;5021572;28;20049;-89
2023/04/19 04:37:16;;;;;;;0.70;0.70;;;3.00;99.90;;;;;;5038080;28;20050;-86
2023/04/19 04:39:42;;;;;;;0.70;0.70;;;3.00;99.90;;;;;;5023136;28;20049;-88
2023/04/19 04:42:08;;;;;;;0.70;0.70;;;4.00;99.90;;;;;;5053880;28;20049;-88
2023/04/19 04:44:35;;;;;;;0.73;0.73;;;2.90;99.90;;;;;;5037759;28;20099;-87
2023/04/19 04:47:01;;;;;;;0.52;0.52;;;2.90;99.90;;;;;;5053975;28;20049;-89
2023/04/19 04:49:27;;;;;;;0.70;0.70;;;3.40;99.90;;;;;;5053350;28;20053;-89
2023/04/19 04:51:53;;;;;;;;;;;2.90;99.90;;;;;;5038266;28;20049;-88
2023/04/19 04:54:19;;;;;;;0.70;0.70;;;2.90;99.90;;;;;;5038642;28;19985;-88
2023/04/19 04:56:44;;;;;;;0.70;0.70;;;4.10;99.90;;;;;;5036126;28;20045;-85
2023/04/19 04:59:10;;;;;;;1.10;1.10;;;3.00;99.90;;;;;;5038562;28;20073;-86
2023/04/19 05:01:36;;;;;;;0.70;0.70;;;3.10;99.90;;;;;;5020387;28;20388;-90
2023/04/19 05:04:02;;;;;;;0.82;0.82;;;4.10;99.90;;;;;;5036549;28;20045;-88
2023/04/19 05:06:27;;;;;;;0.63;0.63;;;4.30;99.90;;;;;;5037392;28;20049;-84
2023/04/19 05:08:53;;;;;;;0.77;0.77;;;3.30;99.90;;;;;;5037185;28;20092;-86
2023/04/19 05:11:19;;;;;;;0.80;0.80;;;3.20;99.90;;;;;;5021814;28;20465;-85
2023/04/19 05:13:45;;;;;;;0.70;0.70;;;3.50;99.90;;;;;;5036937;28;20081;-88
2023/04/19 05:16:11;;;;;;;0.63;0.63;;;3.50;99.90;;;;;;5036757;28;20104;-88
2023/04/19 05:18:36;;;;;;;0.70;0.70;;;3.60;99.90;;;;;;5036715;28;20120;-89
2023/04/19 05:21:02;;;;;;;0.80;0.80;;;3.70;99.90;;;;;;5037216;28;20137;-86
2023/04/19 05:23:28;;;;;;;0.60;0.60;;;3.80;99.90;;;;;;5036665;28;20465;-84
2023/04/19 05:25:53;;;;;;;0.60;0.60;;;3.90;99.90;;;;;;5035343;28;20126;-86
2023/04/19 05:28:19;;;;;;;0.50;0.50;;;4.00;99.90;;;;;;5022966;28;20064;-88
2023/04/19 05:30:45;;;;;;;0.75;0.75;;;4.10;99.90;;;;;;5024801;28;20128;-85
2023/04/19 05:33:11;;;;;;;1.27;1.27;;;4.40;99.90;;;;;;5040554;28;20037;-87
2023/04/19 05:35:36;;;;;;;0.70;0.70;;;4.40;99.90;;;;;;5043459;28;20239;-88
2023/04/19 05:38:02;;;;;;;0.70;0.70;;;4.50;99.90;;;;;;5040584;28;20053;-85
2023/04/19 05:40:28;;;;;;;0.70;0.70;;;4.90;99.90;;;;;;5042396;28;20061;-85
2023/04/19 05:42:54;;;;;;;0.70;0.70;;;4.60;99.90;;;;;;5040000;28;20391;-84
2023/04/19 05:45:21;;;;;;;0.60;0.60;;;4.60;99.90;;;;;;5039950;28;20527;-88
2023/04/19 05:47:46;;;;;;;0.60;0.60;;;4.70;99.90;;;;;;5039454;28;20124;-87
2023/04/19 05:50:13;;;;;;;0.60;0.60;;;4.80;99.90;;;;;;5023507;28;20091;-87
2023/04/19 05:52:39;;;;;;;0.70;0.70;;;5.30;99.90;;;;;;5024262;28;20053;-86
2023/04/19 05:55:05;;;;;;;0.70;0.70;;;4.90;99.90;;;;;;5023939;28;20140;-87
2023/04/19 05:57:31;;;;;;;0.60;0.60;;;5.00;99.90;;;;;;5056407;28;20049;-83
2023/04/19 05:59:57;;;;;;;0.73;0.73;;;5.10;99.90;;;;;;5040651;28;20049;-85
2023/04/19 06:02:23;;;;;;;0.70;0.70;;;5.10;99.90;;;;;;5039251;28;20124;-86
2023/04/19 06:04:48;;;;;;;0.50;0.50;;;5.20;99.90;;;;;;5041317;28;20053;-88
2023/04/19 06:07:14;;;;;;;0.60;0.60;;;5.30;99.90;;;;;;5056463;28;20049;-85
2023/04/19 06:09:40;;;;;;;0.70;0.70;;;5.30;99.90;;;;;;5006094;28;20097;-88
2023/04/19 06:12:06;;;;;;;0.68;0.68;;;5.40;99.90;;;;;;5048337;28;20085;-88
2023/04/19 06:14:31;;;;;;;0.68;0.68;;;5.50;99.90;;;;;;5039011;28;20127;-85
2023/04/19 06:16:57;;;;;;;0.60;0.60;;;5.50;99.90;;;;;;5038786;28;20103;-88
2023/04/19 06:19:23;;;;;;;0.75;0.75;;;5.60;99.90;;;;;;5039343;28;20441;-88
2023/04/19 06:21:48;;;;;;;0.60;0.60;;;5.80;99.90;;;;;;5039274;28;20222;-86
2023/04/19 06:24:14;;;;;;;0.60;0.60;;;5.90;99.90;;;;;;5021861;28;20041;-87
2023/04/19 06:26:40;;;;;;;0.80;0.80;;;6.00;99.90;;;;;;5038188;28;20057;-86
2023/04/19 06:29:06;;;;;;;0.40;0.40;;;6.10;99.90;;;;;;5055163;28;20057;-85
2023/04/19 06:31:32;;;;;;;0.73;0.73;;;6.20;99.90;;;;;;5038269;28;20057;-89
2023/04/19 06:33:59;;;;;;;0.50;0.50;;;6.30;99.90;;;;;;5039966;28;20488;-87
2023/04/19 06:36:25;;;;;;;0.52;0.52;;;6.40;99.90;;;;;;5008338;28;20395;-85
2023/04/19 06:38:51;;;;;;;0.50;0.50;;;6.50;99.90;;;;;;5039323;28;20046;-89
2023/04/19 06:41:17;;;;;;;;;;;6.60;99.90;;;;;;5041732;28;20118;-89
2023/04/19 06:43:43;;;;;;;0.60;0.60;;;6.70;99.90;;;;;;5024151;28;20031;-87
2023/04/19 06:46:09;;;;;;;;;;;6.90;99.90;;;;;;5057555;28;20049;-84
2023/04/19 06:48:35;;;;;;;0.65;0.55;;;7.00;99.90;;;;;;5058154;28;19976;-83
2023/04/19 06:51:01;;;;;;;0.60;0.60;;;7.10;99.90;;;;;;5041200;28;20041;-82
2023/04/19 06:53:26;;;;;;;0.60;0.60;;;7.30;99.90;;;;;;5057887;28;20157;-85
2023/04/19 06:56:01;;;;;;;0.50;0.50;;;7.30;99.90;;;;;;5056029;28;20072;-85
2023/04/19 06:58:27;;;;;;;0.50;0.50;;;7.50;99.90;;;;;;5030164;28;20041;-87
2023/04/19 07:00:53;;;;;;;0.50;0.50;;;7.60;99.90;;;;;;5023064;28;20076;-89
2023/04/19 07:03:19;;;;;;;0.60;0.60;;;7.70;99.90;;;;;;5037603;28;20054;-85
2023/04/19 07:05:45;;;;;;;0.50;0.50;;;7.80;99.90;;;;;;5054299;28;20042;-87
2023/04/19 07:08:11;;;;;;;0.60;0.60;;;7.90;99.90;;;;;;5039295;28;20042;-87
2023/04/19 07:10:36;;;;;;;0.50;0.50;;;8.00;99.90;;;;;;5040242;28;20049;-84
2023/04/19 07:13:02;;;;;;;0.50;0.50;;;8.10;99.90;;;;;;5038356;28;20408;-89
2023/04/19 07:15:28;;;;;;;0.95;0.95;;;8.20;99.90;;;;;;5038383;28;20079;-89
2023/04/19 07:17:54;;;;;;;0.70;0.70;;;8.20;99.90;;;;;;5038970;28;20156;-89
2023/04/19 07:20:20;;;;;;;0.55;0.55;;;8.30;99.90;;;;;;5038969;28;20053;-91
2023/04/19 07:22:46;;;;;;;0.52;0.52;;;8.30;99.90;;;;;;5038310;28;20046;-86
2023/04/19 07:25:12;;;;;;;0.60;0.60;;;8.40;99.90;;;;;;5037009;28;20075;-88
2023/04/19 07:27:38;;;;;;;0.50;0.50;;;8.50;99.90;;;;;;5037817;28;20053;-84
2023/04/19 07:30:05;;;;;;;0.50;0.50;;;8.50;99.90;;;;;;5037657;28;20048;-88
2023/04/19 07:32:31;;;;;;;0.50;0.50;;;8.60;99.90;;;;;;5020754;28;20059;-90
2023/04/19 07:34:56;;;;;;;0.50;0.50;;;8.80;99.90;;;;;;5037161;28;20128;-85
2023/04/19 07:37:22;;;;;;;0.70;0.70;;;8.80;99.90;;;;;;5019909;28;20110;-88
2023/04/19 07:39:48;;;;;;;1.23;1.20;;;9.00;99.90;;;;;;5037960;28;20364;-85
2023/04/19 07:42:14;;;;;;;0.57;0.57;;;9.00;99.90;;;;;;5054484;28;20118;-87
2023/04/19 07:44:39;;;;;;;0.47;0.47;;;9.10;99.90;;;;;;5037886;28;20053;-85
2023/04/19 07:47:05;;;;;;;0.45;0.45;;;9.20;99.90;;;;;;5037972;28;20057;-86
2023/04/19 07:49:33;;;;;;;0.40;0.40;;;9.30;99.90;;;;;;5039421;28;20049;-87
2023/04/19 07:52:02;;;;;;;0.77;0.77;;;9.30;99.90;;;;;;5038205;28;20073;-87
2023/04/19 07:54:29;;;;;;;0.40;0.40;;;9.50;99.90;;;;;;5038771;28;20049;-88
2023/04/19 07:56:56;;;;;;;0.40;0.40;;;9.50;99.90;;;;;;5038536;28;20111;-89
2023/04/19 07:59:22;;;;;;;0.45;0.45;;;9.60;99.90;;;;;;5054209;28;20080;-84
2023/04/19 08:01:48;;;;;;;0.45;0.45;;;9.70;99.90;;;;;;5036860;28;20041;-89
2023/04/19 08:04:14;;;;;;;0.88;0.88;;;9.80;99.90;;;;;;5038556;28;20515;-91
2023/04/19 08:06:40;;;;;;;0.40;0.40;;;9.90;99.90;;;;;;5021845;28;20050;-87
2023/04/19 08:09:06;;;;;;;0.40;0.40;;;9.90;99.90;;;;;;5038116;28;20053;-89
2023/04/19 08:11:32;;;;;;;0.70;0.70;;;10.00;99.90;;;;;;5037653;28;20095;-89
2023/04/19 08:13:57;;;;;;;0.47;0.47;;;10.10;99.90;;;;;;5037098;28;20050;-87
2023/04/19 08:16:23;;;;;;;0.52;0.52;;;10.30;99.90;;;;;;5037433;28;20484;-88
2023/04/19 08:18:50;;;;;;;0.57;0.57;;;10.30;99.90;;;;;;5037560;28;20061;-84
2023/04/19 08:21:17;;;;;;;0.40;0.40;;;10.30;99.90;;;;;;5036956;28;20509;-90
2023/04/19 08:23:42;;;;;;;0.57;0.57;;;10.40;99.90;;;;;;5019824;28;20098;-86
2023/04/19 08:26:08;;;;;;;0.50;0.50;;;10.40;99.90;;;;;;5037461;28;20109;-89
2023/04/19 08:28:34;;;;;;;0.40;0.40;;;10.40;99.90;;;;;;5020395;28;20053;-88
2023/04/19 08:31:00;;;;;;;0.50;0.50;;;10.40;99.90;;;;;;5037335;28;20080;-85
2023/04/19 08:33:27;;;;;;;0.30;0.30;;;10.40;99.90;;;;;;5036337;28;20045;-88
2023/04/19 08:35:53;;;;;;;0.60;0.60;;;10.50;99.90;;;;;;5036664;28;20033;-88
2023/04/19 08:38:19;;;;;;;0.38;0.38;;;10.50;99.90;;;;;;5036542;28;20526;-87
2023/04/19 08:40:49;;;;;;;0.40;0.40;;;10.60;99.90;;;;;;5036105;28;20072;-84
2023/04/19 08:43:17;;;;;;;0.50;0.50;;;10.60;99.90;;;;;;5037983;28;20476;-86
2023/04/19 08:45:46;;;;;;;0.55;0.55;;;10.60;99.90;;;;;;5035930;28;20106;-90
2023/04/19 08:48:14;;;;;;;0.32;0.32;;;10.70;99.90;;;;;;5036688;28;20155;-88
2023/04/19 08:50:41;;;;;;;0.70;0.70;;;10.60;99.90;;;;;;5037156;28;20056;-87
2023/04/19 08:53:10;;;;;;;0.43;0.43;;;10.60;99.90;;;;;;5020348;28;20105;-83
2023/04/19 08:55:40;;;;;;;0.60;0.60;;;10.80;99.90;;;;;;5036127;28;20049;-87
2023/04/19 08:58:06;;;;;;;0.50;0.50;;;10.90;99.90;;;;;;5035602;28;20042;-85
2023/04/19 09:00:33;;;;;;;0.40;0.40;;;10.90;99.90;;;;;;5037134;28;20046;-88
2023/04/19 09:02:59;;;;;;;0.50;0.50;;;11.00;99.90;;;;;;5052543;28;20116;-86
2023/04/19 09:05:30;;;;;;;0.50;0.50;;;11.10;99.90;;;;;;5036384;28;20503;-92
2023/04/19 09:08:20;;;;;;;0.40;0.40;;;11.10;99.90;;;;;;5037360;28;20053;-88
2023/04/19 09:11:00;;;;;;;0.30;0.30;;;11.20;99.90;;;;;;5053025;28;20049;-89
2023/04/19 09:13:27;;;;;;;0.57;0.57;;;11.30;99.90;;;;;;5035992;28;20061;-88
2023/04/19 09:15:55;;;;;;;0.38;0.38;;;11.40;99.90;;;;;;5053191;28;20060;-89
2023/04/19 09:18:23;;;;;;;0.50;0.50;;;11.50;99.90;;;;;;5036371;28;20131;-89
2023/04/19 09:20:49;;;;;;;0.30;0.30;;;11.50;99.90;;;;;;5052129;28;20119;-84
2023/04/19 09:23:17;;;;;;;0.40;0.40;;;11.60;99.90;;;;;;5018471;28;20081;-86
2023/04/19 09:26:00;;;;;;;0.50;0.50;;;11.70;99.90;;;;;;5051647;28;20088;-87
2023/04/19 09:28:30;;;;;;;0.40;0.40;;;11.80;99.90;;;;;;5051933;28;20056;-89
2023/04/19 09:30:56;;;;;;;0.47;0.47;;;11.90;99.90;;;;;;5035085;28;20479;-84
2023/04/19 09:33:38;;;;;;;0.40;0.40;;;11.90;98.50;;;;;;5034743;28;20424;-89
2023/04/19 09:36:05;;;;;;;0.40;0.40;;;12.00;99.90;;;;;;5051743;28;20428;-83
2023/04/19 09:38:49;;;;;;;0.63;0.63;;;12.10;99.90;;;;;;5017870;28;20083;-85
2023/04/19 09:41:16;;;;;;;0.35;0.35;;;12.10;99.90;;;;;;5019091;28;20099;-85
2023/04/19 09:43:42;;;;;;;0.50;0.50;;;12.20;99.40;;;;;;5018255;28;20045;-86
2023/04/19 09:46:07;;;;;;;;;;;12.30;98.50;;;;;;5036770;28;20045;-85
2023/04/19 09:48:35;;;;;;;0.30;0.30;;;12.30;97.90;;;;;;5018911;28;19992;-87
2023/04/19 09:51:01;;;;;;;0.40;0.40;;;12.30;97.90;;;;;;5035733;28;20448;-85
2023/04/19 09:53:29;;;;;;;0.32;0.32;;;12.40;97.20;;;;;;5019088;28;20049;-85
2023/04/19 09:55:55;;;;;;;0.50;0.50;;;12.30;94.60;;;;;;5035559;28;20056;-84
2023/04/19 09:58:21;;;;;;;0.40;0.40;;;12.40;97.60;;;;;;5026739;28;20029;-87
2023/04/19 10:00:49;;;;;;;;;;;12.50;97.10;;;;;;5037397;28;20124;-89
2023/04/19 10:03:16;;;;;;;0.50;0.50;;;12.60;95.10;;;;;;5037106;28;19921;-87
2023/04/19 10:05:43;;;;;;;0.40;0.40;;;12.60;95.90;;;;;;5003725;28;20056;-89
2023/04/19 10:08:11;;;;;;;0.40;0.40;;;12.70;95.00;;;;;;5048171;28;20068;-84
2023/04/19 10:10:39;;;;;;;2.10;0.55;;;12.80;96.50;;;;;;5055247;28;20034;-86
2023/04/19 10:13:10;;;;;;;0.43;0.43;;;12.80;92.90;;;;;;5038729;28;20120;-83
2023/04/19 10:15:37;;;;;;;0.28;0.28;;;12.80;96.30;;;;;;5042607;28;20057;-84
2023/04/19 10:18:04;;;;;;;0.40;0.40;;;12.80;94.50;;;;;;5058830;28;20121;-85
2023/04/19 10:20:48;;;;;;;0.40;0.40;;;12.90;96.40;;;;;;5046936;28;20121;-88
2023/04/19 10:23:15;;;;;;;0.40;0.40;;;13.00;94.50;;;;;;5026391;28;20056;-88
2023/04/19 10:25:48;;;;;;;0.35;0.35;;;13.10;96.70;;;;;;5041801;28;20526;-88
2023/04/19 10:28:16;;;;;;;0.40;0.40;;;13.10;95.00;;;;;;5042934;28;20034;-87
2023/04/19 10:31:20;;;;;;;0.30;0.30;;;13.20;95.40;;;;;;5060248;28;20057;-87
2023/04/19 10:33:47;;;;;;;0.30;0.30;;;13.10;93.10;;;;;;5002250;28;20068;-86
2023/04/19 10:36:16;;;;;;;0.40;0.40;;;13.20;94.60;;;;;;5041976;28;20050;-89
2023/04/19 10:38:44;;;;;;;0.52;0.52;;;13.30;93.90;;;;;;5042608;28;20184;-89
2023/04/19 10:41:16;;;;;;;0.40;0.40;;;13.20;93.50;;;;;;5042983;28;20056;-85
2023/04/19 10:43:46;;;;;;;0.30;0.30;;;13.20;89.90;;;;;;5047229;28;20057;-83
2023/04/19 10:46:35;;;;;;;0.40;0.40;;;13.20;93.20;;;;;;5028203;28;20213;-86
2023/04/19 10:49:03;;;;;;;0.25;0.25;;;13.20;93.50;;;;;;5056852;28;20099;-84
2023/04/19 10:51:34;;;;;;;0.25;0.25;;;13.20;91.80;;;;;;5056853;28;20056;-84
2023/04/19 10:54:08;;;;;;;0.20;0.20;;;13.20;92.90;;;;;;5056273;28;20053;-84
2023/04/19 10:56:34;;;;;;;0.30;0.30;;;13.20;91.80;;;;;;5060029;28;20206;-88
2023/04/19 10:59:21;;;;;;;0.30;0.30;;;13.30;86.90;;;;;;5039615;28;20472;-85
2023/04/19 11:01:52;;;;;;;0.40;0.40;;;13.20;90.90;;;;;;5039520;28;20057;-83
2023/04/19 11:04:21;;;;;;;0.40;0.40;;;13.10;86.60;;;;;;5040242;28;20060;-88
2023/04/19 11:06:50;;;;;;;0.57;0.57;;;13.00;85.30;;;;;;5055495;28;20053;-86
2023/04/19 11:09:25;;;;;;;0.38;0.38;;;13.00;90.90;;;;;;5039103;28;20128;-88
2023/04/19 11:11:59;;;;;;;0.30;0.30;;;13.10;86.40;;;;;;5054429;28;20033;-87
2023/04/19 11:14:27;;;;;;;0.32;0.32;;;13.30;91.20;;;;;;5037594;28;20049;-85
2023/04/19 11:16:53;;;;;;;0.50;0.50;;;13.50;91.90;;;;;;5038385;28;20053;-89
2023/04/19 11:19:19;;;;;;;0.30;0.30;;;13.60;88.40;;;;;;5038680;28;20469;-88
2023/04/19 11:21:46;;;;;;;0.20;0.20;;;13.50;88.80;;;;;;5021235;28;20139;-86
2023/04/19 11:24:14;;;;;;;0.30;0.30;;;13.40;89.40;;;;;;5054697;28;20046;-88
2023/04/19 11:26:42;;;;;;;0.40;0.40;;;13.40;90.80;;;;;;5037932;28;20117;-85
2023/04/19 11:29:09;;;;;;;1.02;0.95;;;13.40;90.10;;;;;;5039276;28;20056;-89
2023/04/19 11:31:35;;;;;;;0.25;0.25;;;13.50;84.50;;;;;;5038469;28;20053;-83
2023/04/19 11:34:03;;;;;;;;;;;13.60;90.50;;;;;;5039720;28;20041;-84
2023/04/19 11:36:35;;;;;;;0.30;0.30;;;13.70;88.80;;;;;;5037982;28;19925;-88
2023/04/19 11:39:04;;;;;;;0.32;0.32;;;13.80;87.50;;;;;;5055682;28;20045;-85
2023/04/19 11:41:38;;;;;;;0.52;0.52;;;13.60;86.90;;;;;;5021644;28;20114;-88
2023/04/19 11:44:03;;;;;;;0.50;0.50;;;13.60;85.70;;;;;;5038483;28;20045;-91
2023/04/19 11:46:29;;;;;;;0.63;0.63;;;13.60;89.10;;;;;;5038579;28;20053;-87
2023/04/19 11:48:55;;;;;;;0.38;0.38;;;13.80;91.00;;;;;;5038222;28;20082;-86
2023/04/19 11:51:21;;;;;;;0.30;0.30;;;14.00;92.10;;;;;;5036362;28;20041;-88
2023/04/19 11:53:46;;;;;;;;;;;14.00;84.80;;;;;;5039205;28;20061;-87
2023/04/19 11:56:14;;;;;;;0.28;0.28;;;14.00;84.20;;;;;;5037512;28;19921;-87
2023/04/19 11:58:46;;;;;;;0.40;0.40;;;13.90;87.30;;;;;;5037477;28;20068;-88
2023/04/19 12:01:20;;;;;;;0.32;0.32;;;13.80;89.00;;;;;;5053424;28;20476;-87
2023/04/19 12:03:49;;;;;;;0.20;0.20;;;13.90;91.30;;;;;;5040704;28;20075;-88
2023/04/19 12:06:28;;;;;;;0.20;0.20;;;14.00;90.30;;;;;;5036817;28;20045;-89
2023/04/19 12:08:55;;;;;;;0.60;0.60;;;14.10;87.50;;;;;;5038316;28;20046;-89
2023/04/19 12:11:23;;;;;;;0.20;0.20;;;13.80;85.20;;;;;;5036802;28;20056;-87
2023/04/19 12:14:17;;;;;;;0.30;0.30;;;14.00;90.10;;;;;;5038882;28;20061;-89
2023/04/19 12:16:46;;;;;;;0.30;0.30;;;14.00;87.70;;;;;;5037954;28;20360;-90
2023/04/19 12:19:19;;;;;;;0.50;0.50;;;13.90;89.90;;;;;;5038302;28;20197;-89
2023/04/19 12:21:48;;;;;;;0.30;0.30;;;13.90;87.70;;;;;;5037783;28;20076;-89
2023/04/19 12:24:16;;;;;;;0.98;0.88;;;13.90;86.90;;;;;;5038335;28;20041;-90
2023/04/19 12:26:55;;;;;;;0.45;0.45;;;13.90;89.10;;;;;;5037969;28;20053;-89
2023/04/19 12:29:21;;;;;;;0.40;0.40;;;14.00;88.40;;;;;;5038351;28;20049;-90
2023/04/19 12:31:47;;;;;;;0.40;0.40;;;13.90;86.50;;;;;;5022539;28;20499;-88
2023/04/19 12:34:12;;;;;;;0.45;0.45;;;13.90;87.20;;;;;;5039977;28;20115;-84
2023/04/19 12:36:44;;;;;;;0.30;0.30;;;14.10;91.20;;;;;;5041729;28;20071;-89
2023/04/19 12:39:10;;;;;;;0.30;0.30;;;14.10;90.20;;;;;;5037983;28;20053;-84
2023/04/19 12:41:35;;;;;;;0.95;0.95;;;14.10;90.10;;;;;;5038163;28;20151;-90
2023/04/19 12:44:01;;;;;;;0.30;0.30;;;14.00;90.70;;;;;;5039491;28;20045;-89
2023/04/19 12:46:27;;;;;;;;;;;14.00;90.80;;;;;;5038577;28;20068;-86
2023/04/19 12:48:54;;;;;;;0.40;0.40;;;14.20;91.70;;;;;;5021773;28;19921;-90
2023/04/19 12:51:20;;;;;;;0.40;0.40;;;14.50;92.10;;;;;;5005533;28;20033;-89
2023/04/19 12:53:49;;;;;;;0.40;0.40;;;14.60;91.60;;;;;;5037613;28;20526;-88
2023/04/19 12:56:16;;;;;;;0.55;0.40;;;14.70;91.10;;;;;;5021378;28;20072;-89